sensor_id;sensor_type;location;lat;lon;timestamp;temperature;humidity
21698;DHT22;11010;49.548;11.926;2023-03-14T00:02:17;9.30;99.90
21698;DHT22;11010;49.548;11.926;2023-03-14T00:04:45;9.20;99.90
21698;DHT22;11010;49.548;11.926;2023-03-14T00:07:13;9.20;99.90
21698;DHT22;11010;49.548;11.926;2023-03-14T00:09:40;9.20;99.90
21698;DHT22;11010;49.548;11.926;2023-03-14T00:12:09;9.10;99.90
21698;DHT22;11010;49.548;11.926;2023-03-14T00:14:36;9.10;99.90
21698;DHT22;11010;49.548;11.926;2023-03-14T00:17:03;9.10;99.90
21698;DHT22;11010;49.548;11.926;2023-03-14T00:19:31;9.10;99.90
21698;DHT22;11010;49.548;11.926;2023-03-14T00:21:58;9.10;99.90
21698;DHT22;11010;49.548;11.926;2023-03-14T00:24:26;9.10;99.90
21698;DHT22;11010;49.548;11.926;2023-03-14T00:26:53;9.00;99.90
21698;DHT22;11010;49.548;11.926;2023-03-14T00:29:22;9.00;99.90
21698;DHT22;11010;49.548;11.926;2023-03-14T00:31:49;9.10;99.90
21698;DHT22;11010;49.548;11.926;2023-03-14T00:34:17;9.10;99.90
21698;DHT22;11010;49.548;11.926;2023-03-14T00:36:44;8.90;99.90
21698;DHT22;11010;49.548;11.926;2023-03-14T00:39:12;9.00;99.90
21698;DHT22;11010;49.548;11.926;2023-03-14T00:41:40;8.90;99.90
21698;DHT22;11010;49.548;11.926;2023-03-14T00:44:07;9.00;99.90
21698;DHT22;11010;49.548;11.926;2023-03-14T00:46:34;9.00;99.90
21698;DHT22;11010;49.548;11.926;2023-03-14T00:49:02;8.90;99.90
21698;DHT22;11010;49.548;11.926;2023-03-14T00:51:30;8.90;99.90
21698;DHT22;11010;49.548;11.926;2023-03-14T00:53:59;8.90;99.90
21698;DHT22;11010;49.548;11.926;2023-03-14T00:56:27;8.90;99.90
21698;DHT22;11010;49.548;11.926;2023-03-14T00:58:55;8.80;99.90
21698;DHT22;11010;49.548;11.926;2023-03-14T01:01:23;8.80;99.90
21698;DHT22;11010;49.548;11.926;2023-03-14T01:03:52;8.90;99.90
21698;DHT22;11010;49.548;11.926;2023-03-14T01:06:23;8.90;99.90
21698;DHT22;11010;49.548;11.926;2023-03-14T01:08:51;8.80;99.90
21698;DHT22;11010;49.548;11.926;2023-03-14T01:11:30;8.80;99.90
21698;DHT22;11010;49.548;11.926;2023-03-14T01:13:59;8.80;99.90
21698;DHT22;11010;49.548;11.926;2023-03-14T01:16:30;8.80;99.90
21698;DHT22;11010;49.548;11.926;2023-03-14T01:19:01;8.80;99.90
21698;DHT22;11010;49.548;11.926;2023-03-14T01:21:31;8.90;99.90
21698;DHT22;11010;49.548;11.926;2023-03-14T01:24:00;8.90;99.90
21698;DHT22;11010;49.548;11.926;2023-03-14T01:26:31;8.90;99.90
21698;DHT22;11010;49.548;11.926;2023-03-14T01:28:58;8.90;99.90
21698;DHT22;11010;49.548;11.926;2023-03-14T01:31:27;8.90;99.90
21698;DHT22;11010;49.548;11.926;2023-03-14T01:33:55;8.80;99.90
21698;DHT22;11010;49.548;11.926;2023-03-14T01:36:23;8.80;99.90
21698;DHT22;11010;49.548;11.926;2023-03-14T01:38:50;8.80;99.90
21698;DHT22;11010;49.548;11.926;2023-03-14T01:41:23;8.80;99.90
21698;DHT22;11010;49.548;11.926;2023-03-14T01:43:53;8.90;99.90
21698;DHT22;11010;49.548;11.926;2023-03-14T01:46:32;8.80;99.90
21698;DHT22;11010;49.548;11.926;2023-03-14T01:49:15;8.90;99.90
21698;DHT22;11010;49.548;11.926;2023-03-14T01:52:48;8.90;99.90
21698;DHT22;11010;49.548;11.926;2023-03-14T01:55:21;8.90;99.90
21698;DHT22;11010;49.548;11.926;2023-03-14T01:57:53;8.90;99.90
21698;DHT22;11010;49.548;11.926;2023-03-14T02:00:24;8.80;99.90
21698;DHT22;11010;49.548;11.926;2023-03-14T02:02:55;8.90;99.90
21698;DHT22;11010;49.548;11.926;2023-03-14T02:05:28;8.80;99.90
21698;DHT22;11010;49.548;11.926;2023-03-14T02:08:02;8.80;99.90
21698;DHT22;11010;49.548;11.926;2023-03-14T02:10:51;8.80;99.90
21698;DHT22;11010;49.548;11.926;2023-03-14T02:13:35;8.80;99.90
21698;DHT22;11010;49.548;11.926;2023-03-14T02:16:22;8.70;99.90
21698;DHT22;11010;49.548;11.926;2023-03-14T02:19:13;8.70;99.90
21698;DHT22;11010;49.548;11.926;2023-03-14T02:22:13;8.70;99.90
21698;DHT22;11010;49.548;11.926;2023-03-14T02:25:04;8.70;99.90
21698;DHT22;11010;49.548;11.926;2023-03-14T02:27:34;8.60;99.90
21698;DHT22;11010;49.548;11.926;2023-03-14T02:30:08;8.70;99.90
21698;DHT22;11010;49.548;11.926;2023-03-14T02:32:41;8.60;99.90
21698;DHT22;11010;49.548;11.926;2023-03-14T02:35:17;8.60;99.90
21698;DHT22;11010;49.548;11.926;2023-03-14T02:37:52;8.60;99.90
21698;DHT22;11010;49.548;11.926;2023-03-14T02:40:22;8.60;99.90
21698;DHT22;11010;49.548;11.926;2023-03-14T02:42:52;8.60;99.90
21698;DHT22;11010;49.548;11.926;2023-03-14T02:47:54;8.50;99.90
21698;DHT22;11010;49.548;11.926;2023-03-14T02:50:27;8.50;99.90
21698;DHT22;11010;49.548;11.926;2023-03-14T02:52:56;8.50;99.90
21698;DHT22;11010;49.548;11.926;2023-03-14T02:55:24;8.60;99.90
21698;DHT22;11010;49.548;11.926;2023-03-14T02:57:57;8.50;99.90
21698;DHT22;11010;49.548;11.926;2023-03-14T03:00:25;8.50;99.90
21698;DHT22;11010;49.548;11.926;2023-03-14T03:02:53;8.50;99.90
21698;DHT22;11010;49.548;11.926;2023-03-14T03:05:21;8.50;99.90
21698;DHT22;11010;49.548;11.926;2023-03-14T03:07:48;8.50;99.90
21698;DHT22;11010;49.548;11.926;2023-03-14T03:10:16;8.50;99.90
21698;DHT22;11010;49.548;11.926;2023-03-14T03:12:44;8.60;99.90
21698;DHT22;11010;49.548;11.926;2023-03-14T03:15:11;8.60;99.90
21698;DHT22;11010;49.548;11.926;2023-03-14T03:17:39;8.60;99.90
21698;DHT22;11010;49.548;11.926;2023-03-14T03:20:07;8.70;99.90
21698;DHT22;11010;49.548;11.926;2023-03-14T03:22:38;8.70;99.90
21698;DHT22;11010;49.548;11.926;2023-03-14T03:25:07;8.70;99.90
21698;DHT22;11010;49.548;11.926;2023-03-14T03:27:36;8.70;99.90
21698;DHT22;11010;49.548;11.926;2023-03-14T03:30:05;8.70;99.90
21698;DHT22;11010;49.548;11.926;2023-03-14T03:32:35;8.60;99.90
21698;DHT22;11010;49.548;11.926;2023-03-14T03:35:05;8.70;99.90
21698;DHT22;11010;49.548;11.926;2023-03-14T03:37:37;8.70;99.90
21698;DHT22;11010;49.548;11.926;2023-03-14T03:40:07;8.70;99.90
21698;DHT22;11010;49.548;11.926;2023-03-14T03:42:35;8.70;99.90
21698;DHT22;11010;49.548;11.926;2023-03-14T03:45:07;8.70;99.90
21698;DHT22;11010;49.548;11.926;2023-03-14T03:47:39;8.70;99.90
21698;DHT22;11010;49.548;11.926;2023-03-14T03:50:07;8.70;99.90
21698;DHT22;11010;49.548;11.926;2023-03-14T03:52:35;8.70;99.90
21698;DHT22;11010;49.548;11.926;2023-03-14T03:55:02;8.60;99.90
21698;DHT22;11010;49.548;11.926;2023-03-14T03:57:30;8.60;99.90
21698;DHT22;11010;49.548;11.926;2023-03-14T03:59:57;8.60;99.90
21698;DHT22;11010;49.548;11.926;2023-03-14T04:02:25;8.60;99.90
21698;DHT22;11010;49.548;11.926;2023-03-14T04:04:53;8.60;99.90
21698;DHT22;11010;49.548;11.926;2023-03-14T04:07:21;8.50;99.90
21698;DHT22;11010;49.548;11.926;2023-03-14T04:09:49;8.60;99.90
21698;DHT22;11010;49.548;11.926;2023-03-14T04:12:34;8.60;99.90
21698;DHT22;11010;49.548;11.926;2023-03-14T04:15:08;8.60;99.90
21698;DHT22;11010;49.548;11.926;2023-03-14T04:17:39;8.50;99.90
21698;DHT22;11010;49.548;11.926;2023-03-14T04:20:09;8.50;99.90
21698;DHT22;11010;49.548;11.926;2023-03-14T04:22:40;8.50;99.90
21698;DHT22;11010;49.548;11.926;2023-03-14T04:25:10;8.50;99.90
21698;DHT22;11010;49.548;11.926;2023-03-14T04:27:43;8.50;99.90
21698;DHT22;11010;49.548;11.926;2023-03-14T04:30:18;8.40;99.90
21698;DHT22;11010;49.548;11.926;2023-03-14T04:33:08;8.40;99.90
21698;DHT22;11010;49.548;11.926;2023-03-14T04:35:44;8.40;99.90
21698;DHT22;11010;49.548;11.926;2023-03-14T04:38:15;8.40;99.90
21698;DHT22;11010;49.548;11.926;2023-03-14T04:40:45;8.40;99.90
21698;DHT22;11010;49.548;11.926;2023-03-14T04:43:13;8.40;99.90
21698;DHT22;11010;49.548;11.926;2023-03-14T04:45:47;8.40;99.90
21698;DHT22;11010;49.548;11.926;2023-03-14T04:48:14;8.40;99.90
21698;DHT22;11010;49.548;11.926;2023-03-14T04:50:57;8.40;99.90
21698;DHT22;11010;49.548;11.926;2023-03-14T04:53:29;8.30;99.90
21698;DHT22;11010;49.548;11.926;2023-03-14T04:56:00;8.30;99.90
21698;DHT22;11010;49.548;11.926;2023-03-14T04:58:35;8.20;99.90
21698;DHT22;11010;49.548;11.926;2023-03-14T05:01:05;8.20;99.90
21698;DHT22;11010;49.548;11.926;2023-03-14T05:03:39;8.20;99.90
21698;DHT22;11010;49.548;11.926;2023-03-14T05:06:26;8.20;99.90
21698;DHT22;11010;49.548;11.926;2023-03-14T05:09:12;8.20;99.90
21698;DHT22;11010;49.548;11.926;2023-03-14T05:12:02;8.20;99.90
21698;DHT22;11010;49.548;11.926;2023-03-14T05:14:35;8.10;99.90
21698;DHT22;11010;49.548;11.926;2023-03-14T05:17:29;8.20;99.90
21698;DHT22;11010;49.548;11.926;2023-03-14T05:20:17;8.10;99.90
21698;DHT22;11010;49.548;11.926;2023-03-14T05:23:12;8.10;99.90
21698;DHT22;11010;49.548;11.926;2023-03-14T05:26:00;8.10;99.90
21698;DHT22;11010;49.548;11.926;2023-03-14T05:29:06;8.10;99.90
21698;DHT22;11010;49.548;11.926;2023-03-14T05:31:42;8.10;99.90
21698;DHT22;11010;49.548;11.926;2023-03-14T05:34:36;8.10;99.90
21698;DHT22;11010;49.548;11.926;2023-03-14T05:37:24;8.10;99.90
21698;DHT22;11010;49.548;11.926;2023-03-14T05:40:17;8.10;99.90
21698;DHT22;11010;49.548;11.926;2023-03-14T05:43:09;8.10;99.90
21698;DHT22;11010;49.548;11.926;2023-03-14T05:45:55;8.00;99.90
21698;DHT22;11010;49.548;11.926;2023-03-14T05:48:58;8.00;99.90
21698;DHT22;11010;49.548;11.926;2023-03-14T05:51:44;8.00;99.90
21698;DHT22;11010;49.548;11.926;2023-03-14T05:54:21;8.00;99.90
21698;DHT22;11010;49.548;11.926;2023-03-14T05:57:18;8.00;99.90
21698;DHT22;11010;49.548;11.926;2023-03-14T06:00:05;8.00;99.90
21698;DHT22;11010;49.548;11.926;2023-03-14T06:02:59;8.00;99.90
21698;DHT22;11010;49.548;11.926;2023-03-14T06:05:31;8.00;99.90
21698;DHT22;11010;49.548;11.926;2023-03-14T06:08:00;8.00;99.90
21698;DHT22;11010;49.548;11.926;2023-03-14T06:10:30;8.00;99.90
21698;DHT22;11010;49.548;11.926;2023-03-14T06:12:58;8.00;99.90
21698;DHT22;11010;49.548;11.926;2023-03-14T06:15:25;8.00;99.90
21698;DHT22;11010;49.548;11.926;2023-03-14T06:17:55;8.00;99.90
21698;DHT22;11010;49.548;11.926;2023-03-14T06:20:24;8.00;99.90
21698;DHT22;11010;49.548;11.926;2023-03-14T06:22:52;8.00;99.90
21698;DHT22;11010;49.548;11.926;2023-03-14T06:25:20;8.00;99.90
21698;DHT22;11010;49.548;11.926;2023-03-14T06:27:48;8.00;99.90
21698;DHT22;11010;49.548;11.926;2023-03-14T06:30:16;8.00;99.90
21698;DHT22;11010;49.548;11.926;2023-03-14T06:32:44;8.00;99.90
21698;DHT22;11010;49.548;11.926;2023-03-14T06:35:14;8.00;99.90
21698;DHT22;11010;49.548;11.926;2023-03-14T06:37:43;8.10;99.90
21698;DHT22;11010;49.548;11.926;2023-03-14T06:40:12;8.00;99.90
21698;DHT22;11010;49.548;11.926;2023-03-14T06:43:07;8.10;99.90
21698;DHT22;11010;49.548;11.926;2023-03-14T06:45:35;8.10;99.90
21698;DHT22;11010;49.548;11.926;2023-03-14T06:48:03;8.10;99.90
21698;DHT22;11010;49.548;11.926;2023-03-14T06:50:38;8.10;99.90
21698;DHT22;11010;49.548;11.926;2023-03-14T06:53:06;8.10;99.90
21698;DHT22;11010;49.548;11.926;2023-03-14T06:55:37;8.10;99.90
21698;DHT22;11010;49.548;11.926;2023-03-14T06:58:05;8.10;99.90
21698;DHT22;11010;49.548;11.926;2023-03-14T07:00:41;8.10;99.90
21698;DHT22;11010;49.548;11.926;2023-03-14T07:03:13;8.10;99.90
21698;DHT22;11010;49.548;11.926;2023-03-14T07:05:44;8.10;99.90
21698;DHT22;11010;49.548;11.926;2023-03-14T07:08:11;8.10;99.90
21698;DHT22;11010;49.548;11.926;2023-03-14T07:10:38;8.20;99.90
21698;DHT22;11010;49.548;11.926;2023-03-14T07:13:07;8.20;99.90
21698;DHT22;11010;49.548;11.926;2023-03-14T07:15:47;8.20;99.90
21698;DHT22;11010;49.548;11.926;2023-03-14T07:18:14;8.20;99.90
21698;DHT22;11010;49.548;11.926;2023-03-14T07:20:42;8.20;99.90
21698;DHT22;11010;49.548;11.926;2023-03-14T07:23:13;8.30;99.90
21698;DHT22;11010;49.548;11.926;2023-03-14T07:25:47;8.40;99.90
21698;DHT22;11010;49.548;11.926;2023-03-14T07:28:16;8.40;99.90
21698;DHT22;11010;49.548;11.926;2023-03-14T07:30:47;8.40;99.90
21698;DHT22;11010;49.548;11.926;2023-03-14T07:33:23;8.50;99.90
21698;DHT22;11010;49.548;11.926;2023-03-14T07:35:51;8.50;99.90
21698;DHT22;11010;49.548;11.926;2023-03-14T07:38:18;8.60;99.90
21698;DHT22;11010;49.548;11.926;2023-03-14T07:41:09;8.60;99.90
21698;DHT22;11010;49.548;11.926;2023-03-14T07:43:45;8.70;99.90
21698;DHT22;11010;49.548;11.926;2023-03-14T07:46:12;8.80;99.90
21698;DHT22;11010;49.548;11.926;2023-03-14T07:48:39;8.90;99.90
21698;DHT22;11010;49.548;11.926;2023-03-14T07:51:07;9.00;99.90
21698;DHT22;11010;49.548;11.926;2023-03-14T07:53:35;9.00;99.90
21698;DHT22;11010;49.548;11.926;2023-03-14T07:56:02;9.00;99.90
21698;DHT22;11010;49.548;11.926;2023-03-14T07:58:30;9.00;99.90
21698;DHT22;11010;49.548;11.926;2023-03-14T08:00:58;9.00;99.90
21698;DHT22;11010;49.548;11.926;2023-03-14T08:03:26;9.00;99.90
21698;DHT22;11010;49.548;11.926;2023-03-14T08:05:53;9.00;99.90
21698;DHT22;11010;49.548;11.926;2023-03-14T08:08:21;9.00;99.90
21698;DHT22;11010;49.548;11.926;2023-03-14T08:10:48;9.00;99.90
21698;DHT22;11010;49.548;11.926;2023-03-14T08:13:15;9.00;99.90
21698;DHT22;11010;49.548;11.926;2023-03-14T08:15:48;9.00;99.90
21698;DHT22;11010;49.548;11.926;2023-03-14T08:18:16;9.00;99.90
21698;DHT22;11010;49.548;11.926;2023-03-14T08:20:43;9.10;99.90
21698;DHT22;11010;49.548;11.926;2023-03-14T08:23:11;9.00;99.90
21698;DHT22;11010;49.548;11.926;2023-03-14T08:25:38;9.10;99.90
21698;DHT22;11010;49.548;11.926;2023-03-14T08:28:06;9.10;99.90
21698;DHT22;11010;49.548;11.926;2023-03-14T08:30:33;9.10;99.90
21698;DHT22;11010;49.548;11.926;2023-03-14T08:33:01;9.10;99.90
21698;DHT22;11010;49.548;11.926;2023-03-14T08:35:28;9.10;99.90
21698;DHT22;11010;49.548;11.926;2023-03-14T08:37:56;9.10;99.90
21698;DHT22;11010;49.548;11.926;2023-03-14T08:40:23;9.10;99.90
21698;DHT22;11010;49.548;11.926;2023-03-14T08:42:51;9.10;99.90
21698;DHT22;11010;49.548;11.926;2023-03-14T08:45:18;9.10;99.90
21698;DHT22;11010;49.548;11.926;2023-03-14T08:47:46;9.20;99.90
21698;DHT22;11010;49.548;11.926;2023-03-14T08:50:13;9.20;99.90
21698;DHT22;11010;49.548;11.926;2023-03-14T08:52:42;9.20;99.90
21698;DHT22;11010;49.548;11.926;2023-03-14T08:55:10;9.30;99.90
21698;DHT22;11010;49.548;11.926;2023-03-14T08:57:37;9.30;99.90
21698;DHT22;11010;49.548;11.926;2023-03-14T09:00:05;9.40;99.90
21698;DHT22;11010;49.548;11.926;2023-03-14T09:02:40;9.40;99.90
21698;DHT22;11010;49.548;11.926;2023-03-14T09:05:08;9.40;99.90
21698;DHT22;11010;49.548;11.926;2023-03-14T09:07:36;9.40;99.90
21698;DHT22;11010;49.548;11.926;2023-03-14T09:10:05;9.50;99.90
21698;DHT22;11010;49.548;11.926;2023-03-14T09:12:32;9.60;99.90
21698;DHT22;11010;49.548;11.926;2023-03-14T09:15:00;9.60;99.90
21698;DHT22;11010;49.548;11.926;2023-03-14T09:17:27;9.70;99.90
21698;DHT22;11010;49.548;11.926;2023-03-14T09:19:55;9.70;99.90
21698;DHT22;11010;49.548;11.926;2023-03-14T09:22:26;9.60;99.90
21698;DHT22;11010;49.548;11.926;2023-03-14T09:24:53;9.60;99.90
21698;DHT22;11010;49.548;11.926;2023-03-14T09:27:21;9.70;99.90
21698;DHT22;11010;49.548;11.926;2023-03-14T09:29:48;9.70;99.90
21698;DHT22;11010;49.548;11.926;2023-03-14T09:32:16;9.80;99.90
21698;DHT22;11010;49.548;11.926;2023-03-14T09:34:43;9.80;99.90
21698;DHT22;11010;49.548;11.926;2023-03-14T09:37:11;9.80;99.90
21698;DHT22;11010;49.548;11.926;2023-03-14T09:39:38;9.70;99.90
21698;DHT22;11010;49.548;11.926;2023-03-14T09:42:08;9.80;99.90
21698;DHT22;11010;49.548;11.926;2023-03-14T09:44:47;9.90;99.90
21698;DHT22;11010;49.548;11.926;2023-03-14T09:47:19;10.00;99.90
21698;DHT22;11010;49.548;11.926;2023-03-14T09:49:47;10.00;99.90
21698;DHT22;11010;49.548;11.926;2023-03-14T09:52:15;10.00;99.90
21698;DHT22;11010;49.548;11.926;2023-03-14T09:57:32;9.90;99.90
21698;DHT22;11010;49.548;11.926;2023-03-14T10:00:12;9.90;99.90
21698;DHT22;11010;49.548;11.926;2023-03-14T10:02:45;10.00;99.90
21698;DHT22;11010;49.548;11.926;2023-03-14T10:05:18;10.10;99.90
21698;DHT22;11010;49.548;11.926;2023-03-14T10:07:46;10.30;99.90
21698;DHT22;11010;49.548;11.926;2023-03-14T10:12:46;10.30;99.90
21698;DHT22;11010;49.548;11.926;2023-03-14T10:15:15;10.30;99.90
21698;DHT22;11010;49.548;11.926;2023-03-14T10:17:51;10.60;99.90
21698;DHT22;11010;49.548;11.926;2023-03-14T10:20:35;11.00;99.90
21698;DHT22;11010;49.548;11.926;2023-03-14T10:23:28;11.10;99.90
21698;DHT22;11010;49.548;11.926;2023-03-14T10:26:05;11.10;99.90
21698;DHT22;11010;49.548;11.926;2023-03-14T10:31:11;11.30;99.90
21698;DHT22;11010;49.548;11.926;2023-03-14T10:33:39;11.30;99.90
21698;DHT22;11010;49.548;11.926;2023-03-14T10:36:23;11.10;99.90
21698;DHT22;11010;49.548;11.926;2023-03-14T10:39:15;11.20;99.90
21698;DHT22;11010;49.548;11.926;2023-03-14T10:41:48;11.00;99.90
21698;DHT22;11010;49.548;11.926;2023-03-14T10:44:21;11.00;99.90
21698;DHT22;11010;49.548;11.926;2023-03-14T10:46:59;10.90;99.90
21698;DHT22;11010;49.548;11.926;2023-03-14T10:49:37;10.80;99.90
21698;DHT22;11010;49.548;11.926;2023-03-14T10:52:21;10.60;99.90
21698;DHT22;11010;49.548;11.926;2023-03-14T10:55:09;10.60;99.90
21698;DHT22;11010;49.548;11.926;2023-03-14T10:57:41;10.60;99.90
21698;DHT22;11010;49.548;11.926;2023-03-14T11:00:17;10.60;99.90
21698;DHT22;11010;49.548;11.926;2023-03-14T11:03:02;10.50;99.90
21698;DHT22;11010;49.548;11.926;2023-03-14T11:10:48;10.40;99.90
21698;DHT22;11010;49.548;11.926;2023-03-14T11:16:38;10.50;99.90
21698;DHT22;11010;49.548;11.926;2023-03-14T11:27:45;10.60;99.90
21698;DHT22;11010;49.548;11.926;2023-03-14T11:30:35;10.60;99.90
21698;DHT22;11010;49.548;11.926;2023-03-14T11:33:59;10.70;99.90
21698;DHT22;11010;49.548;11.926;2023-03-14T11:36:10;10.80;99.90
21698;DHT22;11010;49.548;11.926;2023-03-14T11:43:59;11.00;99.90
21698;DHT22;11010;49.548;11.926;2023-03-14T11:47:14;10.90;99.90
21698;DHT22;11010;49.548;11.926;2023-03-14T11:49:58;10.90;99.90
21698;DHT22;11010;49.548;11.926;2023-03-14T11:52:33;10.90;99.90
21698;DHT22;11010;49.548;11.926;2023-03-14T11:55:11;10.70;99.90
21698;DHT22;11010;49.548;11.926;2023-03-14T11:57:40;10.80;99.90
21698;DHT22;11010;49.548;11.926;2023-03-14T12:00:23;10.70;99.90
21698;DHT22;11010;49.548;11.926;2023-03-14T12:03:17;10.80;99.90
21698;DHT22;11010;49.548;11.926;2023-03-14T12:08:50;10.70;99.90
21698;DHT22;11010;49.548;11.926;2023-03-14T12:14:20;10.50;99.90
21698;DHT22;11010;49.548;11.926;2023-03-14T12:16:49;10.50;99.90
21698;DHT22;11010;49.548;11.926;2023-03-14T12:19:25;10.50;99.90
21698;DHT22;11010;49.548;11.926;2023-03-14T12:22:23;10.40;99.90
21698;DHT22;11010;49.548;11.926;2023-03-14T12:24:53;10.30;99.90
21698;DHT22;11010;49.548;11.926;2023-03-14T12:30:36;10.20;99.90
21698;DHT22;11010;49.548;11.926;2023-03-14T12:35:40;10.20;99.90
21698;DHT22;11010;49.548;11.926;2023-03-14T12:38:25;10.20;99.90
21698;DHT22;11010;49.548;11.926;2023-03-14T12:41:14;10.20;99.90
21698;DHT22;11010;49.548;11.926;2023-03-14T12:43:42;11.10;99.90
21698;DHT22;11010;49.548;11.926;2023-03-14T12:49:09;12.90;99.90
21698;DHT22;11010;49.548;11.926;2023-03-14T12:51:39;12.40;99.90
21698;DHT22;11010;49.548;11.926;2023-03-14T12:57:04;12.60;99.90
21698;DHT22;11010;49.548;11.926;2023-03-14T12:59:48;12.00;99.90
21698;DHT22;11010;49.548;11.926;2023-03-14T13:02:39;11.70;99.90
21698;DHT22;11010;49.548;11.926;2023-03-14T13:05:22;11.60;99.90
21698;DHT22;11010;49.548;11.926;2023-03-14T13:10:27;12.90;99.90
21698;DHT22;11010;49.548;11.926;2023-03-14T13:15:43;12.10;99.90
21698;DHT22;11010;49.548;11.926;2023-03-14T13:21:19;11.70;99.90
21698;DHT22;11010;49.548;11.926;2023-03-14T13:24:05;11.60;99.90
21698;DHT22;11010;49.548;11.926;2023-03-14T13:26:42;11.40;99.90
21698;DHT22;11010;49.548;11.926;2023-03-14T13:29:30;11.60;99.90
21698;DHT22;11010;49.548;11.926;2023-03-14T13:32:02;11.60;99.90
21698;DHT22;11010;49.548;11.926;2023-03-14T13:34:31;11.60;99.90
21698;DHT22;11010;49.548;11.926;2023-03-14T13:36:59;11.80;99.90
21698;DHT22;11010;49.548;11.926;2023-03-14T13:39:28;11.80;99.90
21698;DHT22;11010;49.548;11.926;2023-03-14T13:42:00;11.80;99.90
21698;DHT22;11010;49.548;11.926;2023-03-14T13:44:37;11.70;99.90
21698;DHT22;11010;49.548;11.926;2023-03-14T13:47:14;11.60;99.90
21698;DHT22;11010;49.548;11.926;2023-03-14T13:49:43;11.70;99.90
21698;DHT22;11010;49.548;11.926;2023-03-14T13:52:32;11.60;99.90
21698;DHT22;11010;49.548;11.926;2023-03-14T13:55:04;11.40;99.90
21698;DHT22;11010;49.548;11.926;2023-03-14T13:57:50;11.30;99.90
21698;DHT22;11010;49.548;11.926;2023-03-14T14:00:26;11.30;99.90
21698;DHT22;11010;49.548;11.926;2023-03-14T14:02:55;11.20;99.90
21698;DHT22;11010;49.548;11.926;2023-03-14T14:05:26;11.20;99.90
21698;DHT22;11010;49.548;11.926;2023-03-14T14:07:54;11.00;99.90
21698;DHT22;11010;49.548;11.926;2023-03-14T14:10:22;10.80;99.90
21698;DHT22;11010;49.548;11.926;2023-03-14T14:12:57;9.50;99.90
21698;DHT22;11010;49.548;11.926;2023-03-14T14:15:29;9.00;99.90
21698;DHT22;11010;49.548;11.926;2023-03-14T14:17:58;9.10;99.90
21698;DHT22;11010;49.548;11.926;2023-03-14T14:20:44;9.00;99.90
21698;DHT22;11010;49.548;11.926;2023-03-14T14:23:14;9.10;99.90
21698;DHT22;11010;49.548;11.926;2023-03-14T14:25:43;9.10;99.90
21698;DHT22;11010;49.548;11.926;2023-03-14T14:28:26;9.00;99.90
21698;DHT22;11010;49.548;11.926;2023-03-14T14:36:36;9.00;99.90
21698;DHT22;11010;49.548;11.926;2023-03-14T14:41:42;9.00;99.90
21698;DHT22;11010;49.548;11.926;2023-03-14T14:44:12;9.00;99.90
21698;DHT22;11010;49.548;11.926;2023-03-14T14:46:40;8.90;99.90
21698;DHT22;11010;49.548;11.926;2023-03-14T14:49:14;8.80;99.90
21698;DHT22;11010;49.548;11.926;2023-03-14T14:51:45;8.80;99.90
21698;DHT22;11010;49.548;11.926;2023-03-14T14:54:19;8.80;99.90
21698;DHT22;11010;49.548;11.926;2023-03-14T14:57:03;8.70;99.90
21698;DHT22;11010;49.548;11.926;2023-03-14T14:59:31;8.70;99.90
21698;DHT22;11010;49.548;11.926;2023-03-14T15:02:02;8.70;99.90
21698;DHT22;11010;49.548;11.926;2023-03-14T15:04:30;8.70;99.90
21698;DHT22;11010;49.548;11.926;2023-03-14T15:06:58;8.60;99.90
21698;DHT22;11010;49.548;11.926;2023-03-14T15:09:25;8.80;99.90
21698;DHT22;11010;49.548;11.926;2023-03-14T15:11:53;8.80;99.90
21698;DHT22;11010;49.548;11.926;2023-03-14T15:14:20;8.60;99.90
21698;DHT22;11010;49.548;11.926;2023-03-14T15:16:48;8.50;99.90
21698;DHT22;11010;49.548;11.926;2023-03-14T15:19:25;8.50;99.90
21698;DHT22;11010;49.548;11.926;2023-03-14T15:21:53;8.50;99.90
21698;DHT22;11010;49.548;11.926;2023-03-14T15:24:21;8.50;99.90
21698;DHT22;11010;49.548;11.926;2023-03-14T15:26:49;8.30;99.90
21698;DHT22;11010;49.548;11.926;2023-03-14T15:29:17;8.20;99.90
21698;DHT22;11010;49.548;11.926;2023-03-14T15:31:44;8.20;99.90
21698;DHT22;11010;49.548;11.926;2023-03-14T15:34:12;8.10;99.90
21698;DHT22;11010;49.548;11.926;2023-03-14T15:36:39;7.90;99.90
21698;DHT22;11010;49.548;11.926;2023-03-14T15:39:09;7.80;99.90
21698;DHT22;11010;49.548;11.926;2023-03-14T15:41:37;7.60;99.90
21698;DHT22;11010;49.548;11.926;2023-03-14T15:44:04;7.60;99.90
21698;DHT22;11010;49.548;11.926;2023-03-14T15:46:32;7.60;99.90
21698;DHT22;11010;49.548;11.926;2023-03-14T15:48:59;7.40;99.90
21698;DHT22;11010;49.548;11.926;2023-03-14T15:51:27;7.40;99.90
21698;DHT22;11010;49.548;11.926;2023-03-14T15:53:54;7.40;99.90
21698;DHT22;11010;49.548;11.926;2023-03-14T15:56:22;7.40;99.90
21698;DHT22;11010;49.548;11.926;2023-03-14T15:58:53;7.40;99.90
21698;DHT22;11010;49.548;11.926;2023-03-14T16:01:20;7.40;99.90
21698;DHT22;11010;49.548;11.926;2023-03-14T16:03:48;7.30;99.90
21698;DHT22;11010;49.548;11.926;2023-03-14T16:06:16;7.30;99.90
21698;DHT22;11010;49.548;11.926;2023-03-14T16:08:43;7.30;99.90
21698;DHT22;11010;49.548;11.926;2023-03-14T16:11:13;7.30;99.90
21698;DHT22;11010;49.548;11.926;2023-03-14T16:13:41;7.30;99.90
21698;DHT22;11010;49.548;11.926;2023-03-14T16:16:10;7.20;99.90
21698;DHT22;11010;49.548;11.926;2023-03-14T16:18:39;7.10;99.90
21698;DHT22;11010;49.548;11.926;2023-03-14T16:21:17;7.00;99.90
21698;DHT22;11010;49.548;11.926;2023-03-14T16:23:46;6.90;99.90
21698;DHT22;11010;49.548;11.926;2023-03-14T16:26:18;6.80;99.90
21698;DHT22;11010;49.548;11.926;2023-03-14T16:28:46;6.70;99.90
21698;DHT22;11010;49.548;11.926;2023-03-14T16:31:17;6.70;99.90
21698;DHT22;11010;49.548;11.926;2023-03-14T16:33:46;6.70;99.90
21698;DHT22;11010;49.548;11.926;2023-03-14T16:36:13;6.60;99.90
21698;DHT22;11010;49.548;11.926;2023-03-14T16:38:44;6.50;99.90
21698;DHT22;11010;49.548;11.926;2023-03-14T16:41:14;6.50;99.90
21698;DHT22;11010;49.548;11.926;2023-03-14T16:43:43;6.50;99.90
21698;DHT22;11010;49.548;11.926;2023-03-14T16:46:13;6.40;99.90
21698;DHT22;11010;49.548;11.926;2023-03-14T16:48:43;6.20;99.90
21698;DHT22;11010;49.548;11.926;2023-03-14T16:51:12;6.30;99.90
21698;DHT22;11010;49.548;11.926;2023-03-14T16:53:40;6.30;99.90
21698;DHT22;11010;49.548;11.926;2023-03-14T16:56:08;6.20;99.90
21698;DHT22;11010;49.548;11.926;2023-03-14T16:58:36;6.00;99.90
21698;DHT22;11010;49.548;11.926;2023-03-14T17:01:05;6.10;99.90
21698;DHT22;11010;49.548;11.926;2023-03-14T17:03:41;6.00;99.90
21698;DHT22;11010;49.548;11.926;2023-03-14T17:06:14;5.90;99.90
21698;DHT22;11010;49.548;11.926;2023-03-14T17:08:42;5.90;99.90
21698;DHT22;11010;49.548;11.926;2023-03-14T17:11:10;5.90;99.90